Time;durP1;ratioP1;P1;durP2;ratioP2;P2;SDS_P1;SDS_P2;PMS_P1;PMS_P2;Temp;Humidity;BMP_temperature;BMP_pressure;BME280_temperature;BME280_humidity;BME280_pressure;Samples;Min_cycle;Max_cycle;Signal;HPM_P1;HPM_P2
2022/05/29 00:01:18;;;;;;;4.47;2.30;;;;;;;;;;5081807;28;20233;-81
2022/05/29 00:03:45;;;;;;;3.73;2.30;;;;;;;;;;5081559;28;20296;-81
2022/05/29 00:06:13;;;;;;;3.57;2.30;;;;;;;;;;5082028;28;20237;-82
2022/05/29 00:08:41;;;;;;;4.70;2.40;;;;;;;;;;5082790;28;20685;-82
2022/05/29 00:11:12;;;;;;;5.87;4.27;;;;;;;;;;5082578;28;20241;-82
2022/05/29 00:13:40;;;;;;;5.03;3.33;;;;;;;;;;5082144;28;20225;-82
2022/05/29 00:16:07;;;;;;;3.47;2.83;;;;;;;;;;5081647;28;20237;-82
2022/05/29 00:18:35;;;;;;;4.23;2.83;;;;;;;;;;5081866;28;20209;-82
2022/05/29 00:21:02;;;;;;;3.00;2.23;;;;;;;;;;5081136;28;20241;-81
2022/05/29 00:23:30;;;;;;;5.87;3.20;;;;;;;;;;5081947;28;20220;-82
2022/05/29 00:25:57;;;;;;;6.20;3.00;;;;;;;;;;5080724;28;20716;-82
2022/05/29 00:28:26;;;;;;;4.50;2.57;;;;;;;;;;5081059;28;20205;-82
2022/05/29 00:30:53;;;;;;;4.23;3.50;;;;;;;;;;5081370;28;20240;-81
2022/05/29 00:33:20;;;;;;;8.00;6.27;;;;;;;;;;5081675;28;20233;-82
2022/05/29 00:35:47;;;;;;;5.03;4.53;;;;;;;;;;5081858;28;20264;-82
2022/05/29 00:38:14;;;;;;;8.33;4.60;;;;;;;;;;5081980;28;20255;-82
2022/05/29 00:40:45;;;;;;;5.40;3.60;;;;;;;;;;5081005;28;20269;-83
2022/05/29 00:43:12;;;;;;;5.40;3.13;;;;;;;;;;5081394;28;20205;-82
2022/05/29 00:45:44;;;;;;;6.63;3.50;;;;;;;;;;5081828;28;20235;-82
2022/05/29 00:48:14;;;;;;;5.37;3.30;;;;;;;;;;5082202;28;20214;-82
2022/05/29 00:50:41;;;;;;;6.40;3.50;;;;;;;;;;5080863;28;20237;-81
2022/05/29 00:53:08;;;;;;;6.80;3.10;;;;;;;;;;5081724;28;20236;-82
2022/05/29 00:55:36;;;;;;;6.63;2.83;;;;;;;;;;5081181;28;20256;-82
2022/05/29 00:58:05;;;;;;;5.03;2.90;;;;;;;;;;5080982;28;20205;-81
2022/05/29 01:00:33;;;;;;;5.20;3.80;;;;;;;;;;5081139;28;20233;-82
2022/05/29 01:03:02;;;;;;;4.83;3.40;;;;;;;;;;5072736;28;20209;-82
2022/05/29 01:05:30;;;;;;;5.40;3.13;;;;;;;;;;5076322;28;20236;-82
2022/05/29 01:08:00;;;;;;;5.23;3.13;;;;;;;;;;5066477;28;20208;-82
2022/05/29 01:10:31;;;;;;;7.10;2.93;;;;;;;;;;5064123;28;20349;-82
2022/05/29 01:13:06;;;;;;;6.60;3.30;;;;;;;;;;5065748;28;20733;-82
2022/05/29 01:15:36;;;;;;;7.67;3.17;;;;;;;;;;5064464;28;20255;-82
2022/05/29 01:18:11;;;;;;;7.77;2.90;;;;;;;;;;5061955;28;20206;-82
2022/05/29 01:20:40;;;;;;;3.13;2.83;;;;;;;;;;5061633;28;20224;-82
2022/05/29 01:23:25;;;;;;;3.50;2.70;;;;;;;;;;5061861;28;20205;-82
2022/05/29 01:26:02;;;;;;;4.20;2.87;;;;;;;;;;5061309;28;20241;-82
2022/05/29 01:28:38;;;;;;;3.77;3.10;;;;;;;;;;5061452;28;20213;-82
2022/05/29 01:31:08;;;;;;;4.00;3.60;;;;;;;;;;5064267;28;20233;-83
2022/05/29 01:33:39;;;;;;;3.00;2.70;;;;;;;;;;5068163;28;20245;-83
2022/05/29 01:36:10;;;;;;;3.57;2.93;;;;;;;;;;5068274;28;20248;-83
2022/05/29 01:38:41;;;;;;;11.47;7.20;;;;;;;;;;5067352;28;20202;-82
2022/05/29 01:41:10;;;;;;;12.97;7.90;;;;;;;;;;5067645;28;20234;-82
2022/05/29 01:43:42;;;;;;;7.27;4.43;;;;;;;;;;5057010;28;20205;-84
2022/05/29 01:46:11;;;;;;;6.27;3.73;;;;;;;;;;5066113;28;20251;-83
2022/05/29 01:48:43;;;;;;;11.57;6.70;;;;;;;;;;5089007;28;20201;-82
2022/05/29 01:51:13;;;;;;;13.33;6.63;;;;;;;;;;5087872;28;20233;-83
2022/05/29 01:53:42;;;;;;;9.73;5.43;;;;;;;;;;5088093;28;20217;-83
2022/05/29 01:56:14;;;;;;;6.87;5.10;;;;;;;;;;5088329;28;20241;-82
2022/05/29 01:58:45;;;;;;;7.97;4.07;;;;;;;;;;5088309;28;20209;-83
2022/05/29 02:01:13;;;;;;;7.37;3.83;;;;;;;;;;5088512;28;20240;-82
2022/05/29 02:03:43;;;;;;;5.93;4.13;;;;;;;;;;5087665;28;20206;-83
2022/05/29 02:06:12;;;;;;;8.27;3.83;;;;;;;;;;5087874;28;20245;-82
2022/05/29 02:08:44;;;;;;;6.00;3.83;;;;;;;;;;5088469;28;20280;-83
2022/05/29 02:11:13;;;;;;;12.33;5.43;;;;;;;;;;5087819;28;20248;-82
2022/05/29 02:13:43;;;;;;;12.67;5.27;;;;;;;;;;5088063;28;20359;-83
2022/05/29 02:16:14;;;;;;;9.20;4.30;;;;;;;;;;5088418;28;20240;-83
2022/05/29 02:18:44;;;;;;;10.20;4.43;;;;;;;;;;5090240;28;20202;-83
2022/05/29 02:21:14;;;;;;;6.93;4.43;;;;;;;;;;5092386;28;20229;-83
2022/05/29 02:23:43;;;;;;;5.53;4.27;;;;;;;;;;5092004;28;20681;-83
2022/05/29 02:26:13;;;;;;;6.37;3.93;;;;;;;;;;5091634;28;20237;-82
2022/05/29 02:28:42;;;;;;;5.27;3.80;;;;;;;;;;5092448;28;20620;-83
2022/05/29 02:31:16;;;;;;;5.53;3.60;;;;;;;;;;5091646;28;20233;-82
2022/05/29 02:33:47;;;;;;;9.17;3.87;;;;;;;;;;5091414;28;20215;-82
2022/05/29 02:36:22;;;;;;;5.53;3.40;;;;;;;;;;5091670;28;20252;-83
2022/05/29 02:38:57;;;;;;;5.07;3.33;;;;;;;;;;5092013;28;20239;-82
2022/05/29 02:41:28;;;;;;;4.63;2.90;;;;;;;;;;5092634;28;20232;-82
2022/05/29 02:43:57;;;;;;;6.47;3.37;;;;;;;;;;5092858;28;20213;-83
2022/05/29 02:46:33;;;;;;;6.07;3.10;;;;;;;;;;5091661;28;20233;-82
2022/05/29 02:49:03;;;;;;;5.40;2.50;;;;;;;;;;5091367;28;20198;-83
2022/05/29 02:51:33;;;;;;;4.40;3.03;;;;;;;;;;5091771;28;20249;-83
2022/05/29 02:54:00;;;;;;;5.23;3.00;;;;;;;;;;5091710;28;20229;-82
2022/05/29 02:56:27;;;;;;;8.00;2.73;;;;;;;;;;5091195;28;20240;-83
2022/05/29 02:58:57;;;;;;;11.60;2.80;;;;;;;;;;5091459;28;20205;-82
2022/05/29 03:01:30;;;;;;;2.90;2.63;;;;;;;;;;5090359;28;20243;-82
2022/05/29 03:04:03;;;;;;;5.17;2.63;;;;;;;;;;5090868;28;20198;-83
2022/05/29 03:06:42;;;;;;;6.70;2.60;;;;;;;;;;5090358;28;20237;-82
2022/05/29 03:09:15;;;;;;;7.63;2.60;;;;;;;;;;5091117;28;20208;-82
2022/05/29 03:11:43;;;;;;;5.77;2.37;;;;;;;;;;5090716;28;20237;-82
2022/05/29 03:14:14;;;;;;;4.40;2.50;;;;;;;;;;5091305;28;20705;-82
2022/05/29 03:16:50;;;;;;;6.37;2.63;;;;;;;;;;5089926;28;20245;-82
2022/05/29 03:19:22;;;;;;;5.40;2.50;;;;;;;;;;5091361;28;20196;-82
2022/05/29 03:21:51;;;;;;;8.23;2.70;;;;;;;;;;5091535;28;20237;-82
2022/05/29 03:24:20;;;;;;;3.67;2.47;;;;;;;;;;5090914;28;20217;-82
2022/05/29 03:26:50;;;;;;;2.93;2.60;;;;;;;;;;5087483;28;20704;-81
2022/05/29 03:29:19;;;;;;;10.80;3.00;;;;;;;;;;5086226;28;20202;-82
2022/05/29 03:31:47;;;;;;;4.20;2.87;;;;;;;;;;5080704;28;20677;-83
2022/05/29 03:34:15;;;;;;;2.73;2.40;;;;;;;;;;5075230;28;20225;-82
2022/05/29 03:36:46;;;;;;;7.63;2.77;;;;;;;;;;5074915;28;20257;-83
2022/05/29 03:39:13;;;;;;;5.00;2.80;;;;;;;;;;5075455;28;20550;-82
2022/05/29 03:41:43;;;;;;;5.40;2.37;;;;;;;;;;5073847;28;20721;-82
2022/05/29 03:44:11;;;;;;;5.53;2.67;;;;;;;;;;5074955;28;20260;-83
2022/05/29 03:46:39;;;;;;;5.90;2.87;;;;;;;;;;5073991;28;20249;-82
2022/05/29 03:49:08;;;;;;;6.10;2.77;;;;;;;;;;5075001;28;20214;-82
2022/05/29 03:51:35;;;;;;;7.90;2.90;;;;;;;;;;5074091;28;20233;-83
2022/05/29 03:54:02;;;;;;;5.37;2.60;;;;;;;;;;5074174;28;20257;-82
2022/05/29 03:56:30;;;;;;;4.90;2.90;;;;;;;;;;5073878;28;20245;-82
2022/05/29 03:58:57;;;;;;;4.53;2.50;;;;;;;;;;5074394;28;20220;-83
2022/05/29 04:01:24;;;;;;;6.43;2.53;;;;;;;;;;5072652;28;20728;-81
2022/05/29 04:03:53;;;;;;;6.10;2.87;;;;;;;;;;5053801;28;20205;-82
2022/05/29 04:06:21;;;;;;;3.63;2.70;;;;;;;;;;5053963;28;20441;-82
2022/05/29 04:14:18;;;;;;;7.27;2.70;;;;;;;;;;5053474;28;20748;-82
2022/05/29 04:16:45;;;;;;;6.30;2.40;;;;;;;;;;5052807;28;20246;-82
2022/05/29 04:19:12;;;;;;;2.87;2.07;;;;;;;;;;5054423;28;20206;-82
2022/05/29 04:21:40;;;;;;;4.53;2.73;;;;;;;;;;5053812;28;20241;-82
2022/05/29 04:24:08;;;;;;;8.10;2.70;;;;;;;;;;5065940;28;20201;-83
2022/05/29 04:26:36;;;;;;;4.73;2.50;;;;;;;;;;5070456;28;20241;-81
2022/05/29 04:29:04;;;;;;;4.73;2.70;;;;;;;;;;5072034;28;20214;-82
2022/05/29 04:31:32;;;;;;;8.57;2.60;;;;;;;;;;5069631;28;20245;-82
2022/05/29 04:33:58;;;;;;;5.10;2.77;;;;;;;;;;5056517;28;20823;-82
2022/05/29 04:36:25;;;;;;;7.17;2.70;;;;;;;;;;5056166;28;20257;-82
2022/05/29 04:38:55;;;;;;;7.20;2.83;;;;;;;;;;5056722;28;20220;-82
2022/05/29 04:41:25;;;;;;;6.80;2.80;;;;;;;;;;5055255;28;20234;-83
2022/05/29 04:43:53;;;;;;;8.07;2.67;;;;;;;;;;5056863;28;20270;-82
2022/05/29 04:46:20;;;;;;;4.17;2.70;;;;;;;;;;5065497;28;20240;-82
2022/05/29 04:48:47;;;;;;;15.53;3.10;;;;;;;;;;5076190;28;20216;-82
2022/05/29 04:51:14;;;;;;;5.77;2.30;;;;;;;;;;5075796;28;20233;-83
2022/05/29 04:53:41;;;;;;;7.80;3.10;;;;;;;;;;5075250;28;20209;-82
2022/05/29 04:56:10;;;;;;;4.70;2.47;;;;;;;;;;5075546;28;20238;-83
2022/05/29 04:58:38;;;;;;;3.60;2.50;;;;;;;;;;5077031;28;20251;-82
2022/05/29 05:01:05;;;;;;;5.60;2.53;;;;;;;;;;5075618;28;20243;-83
2022/05/29 05:03:32;;;;;;;6.47;2.83;;;;;;;;;;5075560;28;20209;-82
2022/05/29 05:05:59;;;;;;;5.70;2.43;;;;;;;;;;5075720;28;20244;-82
2022/05/29 05:08:27;;;;;;;8.40;2.30;;;;;;;;;;5075374;28;20209;-82
2022/05/29 05:13:28;;;;;;;6.83;2.57;;;;;;;;;;5050409;28;20237;-81
2022/05/29 05:16:00;;;;;;;6.00;2.07;;;;;;;;;;5051625;28;20253;-83
2022/05/29 05:18:27;;;;;;;6.37;2.30;;;;;;;;;;5052186;28;20842;-83
2022/05/29 05:20:54;;;;;;;4.37;2.30;;;;;;;;;;5051611;28;20233;-83
2022/05/29 05:23:21;;;;;;;9.37;2.53;;;;;;;;;;5051899;28;20221;-83
2022/05/29 05:25:48;;;;;;;4.83;2.40;;;;;;;;;;5051534;28;20233;-83
2022/05/29 05:28:15;;;;;;;6.93;2.40;;;;;;;;;;5053066;28;20206;-82
2022/05/29 05:30:44;;;;;;;7.20;2.80;;;;;;;;;;5051688;28;20233;-82
2022/05/29 05:33:11;;;;;;;3.10;2.07;;;;;;;;;;5052025;28;20240;-82
2022/05/29 05:35:38;;;;;;;6.17;3.00;;;;;;;;;;5052856;28;20238;-81
2022/05/29 05:38:07;;;;;;;7.80;2.53;;;;;;;;;;5053548;28;20213;-83
2022/05/29 05:40:34;;;;;;;7.27;2.57;;;;;;;;;;5052657;28;20222;-82
2022/05/29 05:43:01;;;;;;;6.97;2.00;;;;;;;;;;5055698;28;20237;-82
2022/05/29 05:45:28;;;;;;;6.23;2.43;;;;;;;;;;5055298;28;20230;-82
2022/05/29 05:47:56;;;;;;;7.23;2.10;;;;;;;;;;5054196;28;20208;-82
2022/05/29 05:50:23;;;;;;;7.27;2.13;;;;;;;;;;5054813;28;20229;-82
2022/05/29 05:52:50;;;;;;;6.30;2.30;;;;;;;;;;5055853;28;20232;-82
2022/05/29 05:55:18;;;;;;;5.57;2.13;;;;;;;;;;5058331;28;20237;-82
2022/05/29 05:57:45;;;;;;;3.57;1.97;;;;;;;;;;5060350;28;20296;-82
2022/05/29 06:00:13;;;;;;;6.20;2.30;;;;;;;;;;5057908;28;20229;-82
2022/05/29 06:02:41;;;;;;;2.83;2.07;;;;;;;;;;5057738;28;20230;-81
2022/05/29 06:05:10;;;;;;;4.90;2.40;;;;;;;;;;5059603;28;20226;-82
2022/05/29 06:07:37;;;;;;;6.40;2.40;;;;;;;;;;5063368;28;20202;-81
2022/05/29 06:10:05;;;;;;;2.23;2.03;;;;;;;;;;5062715;28;22112;-81
2022/05/29 06:12:32;;;;;;;5.70;2.57;;;;;;;;;;5060133;28;20721;-81
2022/05/29 06:14:59;;;;;;;5.53;2.20;;;;;;;;;;5058879;28;20229;-81
2022/05/29 06:17:26;;;;;;;4.70;2.07;;;;;;;;;;5062097;28;20206;-81
2022/05/29 06:19:53;;;;;;;8.47;2.10;;;;;;;;;;5062204;28;20208;-81
2022/05/29 06:22:22;;;;;;;4.63;1.97;;;;;;;;;;5063670;28;20232;-81
2022/05/29 06:24:49;;;;;;;3.37;1.90;;;;;;;;;;5059899;28;20381;-81
2022/05/29 06:27:16;;;;;;;5.80;2.30;;;;;;;;;;5062724;28;20222;-80
2022/05/29 06:29:43;;;;;;;7.93;2.30;;;;;;;;;;5060956;28;20218;-81
2022/05/29 06:32:12;;;;;;;8.43;1.80;;;;;;;;;;5060837;28;20233;-81
2022/05/29 06:34:42;;;;;;;7.40;1.93;;;;;;;;;;5058145;28;20241;-82
2022/05/29 06:37:09;;;;;;;6.27;2.33;;;;;;;;;;5057406;28;20241;-82
2022/05/29 06:39:37;;;;;;;5.50;1.83;;;;;;;;;;5068798;28;20204;-82
2022/05/29 06:42:05;;;;;;;3.50;1.70;;;;;;;;;;5048889;28;20241;-81
2022/05/29 06:44:32;;;;;;;4.87;2.10;;;;;;;;;;5035116;28;20678;-82
2022/05/29 06:47:03;;;;;;;9.10;2.43;;;;;;;;;;5043367;28;20748;-81
2022/05/29 06:49:30;;;;;;;3.57;2.00;;;;;;;;;;5055600;28;20210;-81
2022/05/29 06:51:57;;;;;;;5.03;1.80;;;;;;;;;;5055520;28;20264;-81
2022/05/29 06:54:24;;;;;;;3.57;2.03;;;;;;;;;;5056172;28;20574;-80
2022/05/29 06:56:53;;;;;;;3.80;2.00;;;;;;;;;;5056209;28;20242;-81
2022/05/29 06:59:21;;;;;;;6.17;2.43;;;;;;;;;;5056618;28;20297;-81
2022/05/29 07:07:17;;;;;;;4.37;1.50;;;;;;;;;;5055502;28;20210;-81
2022/05/29 07:09:44;;;;;;;3.07;1.90;;;;;;;;;;5062758;28;20190;-81
2022/05/29 07:12:14;;;;;;;4.00;1.73;;;;;;;;;;5058840;28;20694;-82
2022/05/29 07:14:44;;;;;;;7.13;1.73;;;;;;;;;;5057521;28;20198;-81
2022/05/29 07:17:12;;;;;;;5.87;1.50;;;;;;;;;;5039251;28;20247;-81
2022/05/29 07:19:40;;;;;;;2.73;1.60;;;;;;;;;;5037918;28;20277;-80
2022/05/29 07:22:08;;;;;;;6.83;1.70;;;;;;;;;;5036619;28;20242;-82
2022/05/29 07:24:36;;;;;;;5.40;1.53;;;;;;;;;;5053808;28;20693;-82
2022/05/29 07:27:03;;;;;;;3.60;1.30;;;;;;;;;;5059094;28;20244;-81
2022/05/29 07:29:31;;;;;;;4.67;1.37;;;;;;;;;;5059545;28;20285;-82
2022/05/29 07:31:58;;;;;;;5.03;1.40;;;;;;;;;;5049772;28;20233;-81
2022/05/29 07:34:27;;;;;;;4.37;1.80;;;;;;;;;;5046527;28;20281;-81
2022/05/29 07:36:55;;;;;;;4.03;1.50;;;;;;;;;;5039615;28;20321;-85
2022/05/29 07:39:22;;;;;;;2.27;1.53;;;;;;;;;;5041162;28;20568;-81
2022/05/29 07:44:35;;;;;;;3.50;1.50;;;;;;;;;;5040772;28;20186;-81
2022/05/29 07:47:02;;;;;;;1.83;1.30;;;;;;;;;;5058968;28;20226;-80
2022/05/29 07:49:29;;;;;;;3.73;1.27;;;;;;;;;;5059330;28;20183;-81
2022/05/29 07:51:56;;;;;;;7.53;1.42;;;;;;;;;;5045996;28;20238;-82
2022/05/29 07:54:25;;;;;;;3.80;1.63;;;;;;;;;;5045274;28;20214;-82
2022/05/29 07:56:52;;;;;;;4.75;1.55;;;;;;;;;;5046613;28;20230;-82
2022/05/29 07:59:20;;;;;;;5.13;1.85;;;;;;;;;;5054019;28;20206;-82
2022/05/29 08:01:48;;;;;;;2.70;1.60;;;;;;;;;;5061840;28;20309;-81
2022/05/29 08:04:15;;;;;;;4.43;1.60;;;;;;;;;;5063334;28;20195;-82
2022/05/29 08:06:43;;;;;;;5.00;1.40;;;;;;;;;;5060328;28;20233;-82
2022/05/29 08:09:10;;;;;;;6.18;1.52;;;;;;;;;;5058899;28;20213;-82
2022/05/29 08:11:37;;;;;;;5.50;1.38;;;;;;;;;;5059834;28;20249;-81
2022/05/29 08:14:04;;;;;;;7.75;1.40;;;;;;;;;;5062698;28;20206;-80
2022/05/29 08:16:31;;;;;;;2.65;1.27;;;;;;;;;;5058302;28;20229;-82
2022/05/29 08:19:00;;;;;;;4.93;1.35;;;;;;;;;;5054842;28;20658;-82
2022/05/29 08:21:27;;;;;;;4.47;0.90;;;;;;;;;;5056395;28;20744;-82
2022/05/29 08:32:09;;;;;;;5.53;1.15;;;;;;;;;;5043713;28;20240;-83
2022/05/29 08:34:37;;;;;;;4.30;1.45;;;;;;;;;;5055737;28;20206;-83
2022/05/29 08:37:05;;;;;;;2.60;1.35;;;;;;;;;;5053853;28;20245;-83
2022/05/29 08:39:32;;;;;;;3.78;1.10;;;;;;;;;;5053312;28;20205;-83
2022/05/29 08:42:00;;;;;;;1.65;0.90;;;;;;;;;;5052437;28;20280;-82
2022/05/29 08:44:31;;;;;;;3.08;1.38;;;;;;;;;;5052857;28;20209;-83
2022/05/29 08:47:02;;;;;;;1.95;1.02;;;;;;;;;;5052362;28;20233;-82
2022/05/29 08:49:31;;;;;;;1.45;0.93;;;;;;;;;;5052981;28;20646;-83
2022/05/29 08:52:12;;;;;;;1.98;0.90;;;;;;;;;;5052006;28;20237;-82
2022/05/29 08:54:49;;;;;;;2.63;1.20;;;;;;;;;;5050681;28;20202;-83
2022/05/29 08:57:25;;;;;;;2.30;1.25;;;;;;;;;;5052023;28;20221;-83
2022/05/29 08:59:53;;;;;;;3.67;1.00;;;;;;;;;;5052291;28;20689;-83
2022/05/29 09:02:24;;;;;;;2.15;1.10;;;;;;;;;;5052324;28;20229;-83
2022/05/29 09:04:55;;;;;;;2.13;1.10;;;;;;;;;;5052108;28;20205;-83
2022/05/29 09:07:25;;;;;;;4.55;1.20;;;;;;;;;;5052657;28;20195;-81
2022/05/29 09:09:54;;;;;;;2.55;1.00;;;;;;;;;;5052354;28;20285;-82
2022/05/29 09:12:24;;;;;;;3.33;1.30;;;;;;;;;;5053064;28;20234;-83
2022/05/29 09:14:52;;;;;;;3.20;1.17;;;;;;;;;;5056673;28;20199;-82
2022/05/29 09:17:22;;;;;;;2.00;0.80;;;;;;;;;;5052805;28;20221;-83
2022/05/29 09:19:52;;;;;;;1.10;0.90;;;;;;;;;;5051768;28;20712;-83
2022/05/29 09:22:20;;;;;;;4.20;1.10;;;;;;;;;;5052341;28;20229;-82
2022/05/29 09:24:52;;;;;;;1.50;0.77;;;;;;;;;;5050883;28;20677;-83
2022/05/29 09:27:19;;;;;;;1.38;0.85;;;;;;;;;;5051940;28;20212;-82
2022/05/29 09:29:47;;;;;;;1.63;0.70;;;;;;;;;;5051359;28;20267;-83
2022/05/29 09:32:15;;;;;;;2.45;1.02;;;;;;;;;;5052286;28;20218;-82
2022/05/29 09:34:43;;;;;;;2.97;0.98;;;;;;;;;;5052077;28;20260;-83
2022/05/29 09:37:14;;;;;;;2.25;0.70;;;;;;;;;;5052443;28;20260;-82
2022/05/29 09:39:43;;;;;;;1.73;0.80;;;;;;;;;;5052075;28;20296;-81
2022/05/29 09:42:13;;;;;;;0.82;0.70;;;;;;;;;;5051649;28;20264;-84
2022/05/29 09:44:43;;;;;;;2.20;0.80;;;;;;;;;;5052232;28;20233;-82
2022/05/29 09:50:09;;;;;;;2.20;0.75;;;;;;;;;;5050687;28;20446;-82
2022/05/29 09:52:41;;;;;;;2.83;0.98;;;;;;;;;;5053253;28;20236;-82
2022/05/29 09:55:14;;;;;;;2.13;0.95;;;;;;;;;;5052202;28;20240;-82
2022/05/29 09:57:44;;;;;;;2.75;1.10;;;;;;;;;;5054143;28;20182;-82
2022/05/29 10:00:15;;;;;;;4.47;0.93;;;;;;;;;;5046228;28;20293;-82
2022/05/29 10:02:44;;;;;;;1.15;0.68;;;;;;;;;;5053546;28;20229;-82
2022/05/29 10:05:22;;;;;;;2.13;0.80;;;;;;;;;;5050054;28;20257;-81
2022/05/29 10:07:50;;;;;;;1.98;1.08;;;;;;;;;;5050739;28;20224;-82
2022/05/29 10:10:29;;;;;;;2.55;1.10;;;;;;;;;;5053453;28;20643;-82
2022/05/29 10:12:59;;;;;;;2.03;1.02;;;;;;;;;;5052846;28;20612;-82
2022/05/29 10:15:40;;;;;;;2.20;1.00;;;;;;;;;;5052095;28;20245;-81
2022/05/29 10:18:32;;;;;;;2.83;0.77;;;;;;;;;;5053406;28;20620;-82
2022/05/29 10:21:07;;;;;;;3.22;1.30;;;;;;;;;;5053480;28;20281;-81
2022/05/29 10:23:36;;;;;;;0.73;0.65;;;;;;;;;;5054918;28;20210;-82
2022/05/29 10:26:09;;;;;;;2.05;0.68;;;;;;;;;;5054238;28;20226;-82
2022/05/29 10:28:39;;;;;;;1.50;0.85;;;;;;;;;;5053714;28;20201;-81
2022/05/29 10:31:07;;;;;;;2.33;1.00;;;;;;;;;;5052392;28;20226;-80
2022/05/29 10:33:36;;;;;;;1.08;0.77;;;;;;;;;;5052979;28;20190;-81
2022/05/29 10:36:11;;;;;;;3.90;1.30;;;;;;;;;;5052232;28;20234;-81
2022/05/29 10:38:38;;;;;;;2.38;0.98;;;;;;;;;;5054065;28;20206;-82
2022/05/29 10:41:06;;;;;;;5.18;1.02;;;;;;;;;;5057004;28;20238;-82
2022/05/29 10:43:35;;;;;;;3.38;0.95;;;;;;;;;;5064263;28;20197;-82
2022/05/29 10:46:06;;;;;;;1.35;0.85;;;;;;;;;;5062298;28;20234;-82
2022/05/29 10:48:48;;;;;;;1.00;0.63;;;;;;;;;;5062818;28;20206;-82
2022/05/29 10:51:19;;;;;;;1.65;1.05;;;;;;;;;;5048469;28;20580;-82
2022/05/29 10:53:54;;;;;;;1.50;0.88;;;;;;;;;;5061994;28;20205;-82
2022/05/29 10:56:26;;;;;;;1.13;0.90;;;;;;;;;;5060357;28;20241;-81
2022/05/29 10:59:12;;;;;;;2.35;1.00;;;;;;;;;;5060921;28;20193;-81
2022/05/29 11:04:43;;;;;;;2.28;1.20;;;;;;;;;;5062499;28;20225;-81
2022/05/29 11:07:21;;;;;;;2.40;0.90;;;;;;;;;;5061958;28;20234;-81
2022/05/29 11:09:54;;;;;;;2.78;1.10;;;;;;;;;;5060389;28;20213;-86
2022/05/29 11:14:59;;;;;;;4.05;1.17;;;;;;;;;;5080422;22;20253;-81
2022/05/29 11:17:32;;;;;;;3.33;1.05;;;;;;;;;;5054292;28;20217;-78
2022/05/29 11:20:17;;;;;;;1.92;0.90;;;;;;;;;;5053274;28;20190;-78
2022/05/29 11:22:47;;;;;;;1.08;0.77;;;;;;;;;;5027007;28;20264;-78
2022/05/29 11:25:17;;;;;;;2.80;1.35;;;;;;;;;;5053107;28;20740;-79
2022/05/29 11:27:57;;;;;;;1.70;0.80;;;;;;;;;;5055652;28;20187;-80
2022/05/29 11:30:27;;;;;;;1.77;1.20;;;;;;;;;;5057707;28;20237;-82
2022/05/29 11:33:05;;;;;;;3.08;1.20;;;;;;;;;;5057960;28;20226;-83
2022/05/29 11:35:38;;;;;;;3.58;1.40;;;;;;;;;;5058031;28;20230;-81
2022/05/29 11:38:18;;;;;;;3.10;1.15;;;;;;;;;;5058891;28;20217;-82
2022/05/29 11:40:47;;;;;;;4.32;1.38;;;;;;;;;;5058663;28;20237;-83
2022/05/29 11:43:21;;;;;;;1.70;1.27;;;;;;;;;;5055658;28;20316;-79
2022/05/29 11:51:27;;;;;;;2.10;1.20;;;;;;;;;;5055723;28;20249;-80
2022/05/29 11:53:58;;;;;;;3.75;1.17;;;;;;;;;;5061210;28;20229;-80
2022/05/29 11:56:31;;;;;;;2.30;1.00;;;;;;;;;;5070377;28;20248;-80
2022/05/29 11:59:01;;;;;;;1.58;0.80;;;;;;;;;;5078057;28;20210;-81
2022/05/29 12:01:32;;;;;;;2.22;0.98;;;;;;;;;;5074249;28;20240;-82
2022/05/29 12:04:03;;;;;;;4.65;1.10;;;;;;;;;;5074694;28;20224;-82
2022/05/29 12:06:32;;;;;;;2.35;0.70;;;;;;;;;;5075534;28;20229;-82
2022/05/29 12:09:01;;;;;;;1.38;1.05;;;;;;;;;;5077715;28;20209;-80
2022/05/29 12:11:46;;;;;;;2.92;1.15;;;;;;;;;;5081060;28;20236;-81
2022/05/29 12:14:15;;;;;;;3.42;0.85;;;;;;;;;;5060120;28;20237;-81
2022/05/29 12:16:44;;;;;;;1.52;1.20;;;;;;;;;;5057783;28;20238;-83
2022/05/29 12:19:16;;;;;;;1.55;0.88;;;;;;;;;;5058154;28;20213;-82
2022/05/29 12:21:46;;;;;;;4.60;1.20;;;;;;;;;;5057841;28;20230;-84
2022/05/29 12:24:16;;;;;;;1.55;0.93;;;;;;;;;;5058658;28;20229;-82
2022/05/29 12:26:45;;;;;;;2.58;0.93;;;;;;;;;;5057737;28;20233;-82
2022/05/29 12:29:16;;;;;;;3.17;1.40;;;;;;;;;;5057432;28;20240;-83
2022/05/29 12:31:44;;;;;;;1.90;1.00;;;;;;;;;;5057258;28;20715;-85
2022/05/29 12:34:17;;;;;;;2.63;1.05;;;;;;;;;;5058048;28;20224;-81
2022/05/29 12:36:58;;;;;;;2.92;0.90;;;;;;;;;;5053584;28;20234;-82
2022/05/29 12:39:31;;;;;;;2.25;1.17;;;;;;;;;;5055725;28;20201;-82
2022/05/29 12:42:22;;;;;;;1.73;0.60;;;;;;;;;;5053660;28;20252;-85
2022/05/29 12:45:10;;;;;;;3.05;0.95;;;;;;;;;;5035069;28;20206;-82
2022/05/29 12:47:57;;;;;;;0.80;0.80;;;;;;;;;;5056303;28;20269;-83
2022/05/29 12:50:34;;;;;;;4.82;0.80;;;;;;;;;;5029594;28;20236;-85
2022/05/29 12:53:13;;;;;;;1.50;1.00;;;;;;;;;;5054173;28;20276;-83
2022/05/29 12:55:49;;;;;;;1.13;0.90;;;;;;;;;;5053418;28;20236;-85
2022/05/29 12:58:26;;;;;;;1.35;1.20;;;;;;;;;;5056607;28;20221;-82
2022/05/29 13:01:03;;;;;;;2.63;1.05;;;;;;;;;;5056044;28;20225;-86
2022/05/29 13:04:00;;;;;;;2.28;1.02;;;;;;;;;;5056805;28;20226;-82
2022/05/29 13:06:40;;;;;;;2.40;1.10;;;;;;;;;;5057599;28;20238;-83
2022/05/29 13:09:26;;;;;;;2.65;0.80;;;;;;;;;;5052522;28;20209;-80
2022/05/29 13:11:57;;;;;;;0.80;0.80;;;;;;;;;;5053965;28;20238;-81
2022/05/29 13:14:25;;;;;;;2.83;1.08;;;;;;;;;;5053012;28;20279;-80
2022/05/29 13:17:02;;;;;;;3.45;1.02;;;;;;;;;;5050872;28;20281;-79
2022/05/29 13:19:53;;;;;;;2.50;1.00;;;;;;;;;;5052497;28;20186;-82
2022/05/29 13:22:22;;;;;;;1.90;1.10;;;;;;;;;;5050846;28;20620;-79
2022/05/29 13:25:01;;;;;;;1.00;0.90;;;;;;;;;;5050572;28;20190;-79
2022/05/29 13:27:29;;;;;;;1.45;0.80;;;;;;;;;;5051009;28;20209;-80
2022/05/29 13:29:57;;;;;;;0.80;0.75;;;;;;;;;;5050925;28;20206;-79
2022/05/29 13:32:25;;;;;;;1.10;0.73;;;;;;;;;;5051393;28;20202;-79
2022/05/29 13:34:53;;;;;;;2.50;1.27;;;;;;;;;;5051133;28;20214;-81
2022/05/29 13:37:25;;;;;;;1.75;1.20;;;;;;;;;;5051742;28;20257;-79
2022/05/29 13:39:53;;;;;;;1.63;0.90;;;;;;;;;;5051392;28;20210;-82
2022/05/29 13:42:26;;;;;;;2.08;1.13;;;;;;;;;;5051595;28;20190;-80
2022/05/29 13:44:53;;;;;;;1.50;0.80;;;;;;;;;;5050348;28;20214;-83
2022/05/29 13:47:43;;;;;;;1.80;0.90;;;;;;;;;;5051234;28;20202;-79
2022/05/29 13:50:24;;;;;;;0.70;0.70;;;;;;;;;;5050809;28;20232;-80
2022/05/29 13:52:54;;;;;;;1.30;0.70;;;;;;;;;;5052309;28;20240;-81
2022/05/29 13:55:22;;;;;;;1.20;1.05;;;;;;;;;;5054734;28;20229;-80
2022/05/29 14:06:18;;;;;;;1.25;0.90;;;;;;;;;;5050688;28;20244;-79
2022/05/29 14:08:51;;;;;;;0.77;0.68;;;;;;;;;;5050406;28;20670;-82
2022/05/29 14:11:19;;;;;;;1.13;0.77;;;;;;;;;;5050202;28;20242;-78
2022/05/29 14:13:48;;;;;;;0.75;0.75;;;;;;;;;;5050390;28;20234;-79
2022/05/29 14:16:36;;;;;;;0.88;0.75;;;;;;;;;;5053904;28;20249;-78
2022/05/29 14:19:11;;;;;;;1.55;0.77;;;;;;;;;;5056710;28;20217;-83
2022/05/29 14:21:48;;;;;;;3.25;1.00;;;;;;;;;;5058702;28;20237;-82
2022/05/29 14:24:30;;;;;;;1.27;0.50;;;;;;;;;;5058301;28;20229;-79
2022/05/29 14:27:06;;;;;;;2.70;0.57;;;;;;;;;;5051511;28;20705;-80
2022/05/29 14:29:43;;;;;;;0.52;0.52;;;;;;;;;;5055905;28;20194;-83
2022/05/29 14:32:19;;;;;;;2.17;0.90;;;;;;;;;;5056942;28;20233;-79
2022/05/29 14:34:58;;;;;;;2.42;1.02;;;;;;;;;;5055767;28;20233;-84
2022/05/29 14:37:40;;;;;;;3.97;1.83;;;;;;;;;;5056874;28;20225;-79
2022/05/29 14:40:12;;;;;;;2.42;1.70;;;;;;;;;;5059510;28;20670;-80
2022/05/29 14:42:41;;;;;;;0.70;0.70;;;;;;;;;;5057823;28;20210;-80
2022/05/29 14:45:10;;;;;;;0.80;0.80;;;;;;;;;;5056297;28;20226;-80
2022/05/29 14:47:41;;;;;;;2.15;0.93;;;;;;;;;;5055785;28;20198;-79
2022/05/29 14:50:11;;;;;;;1.75;0.70;;;;;;;;;;5055270;28;20617;-84
2022/05/29 14:52:43;;;;;;;1.50;1.10;;;;;;;;;;5055739;28;20213;-84
2022/05/29 14:55:12;;;;;;;1.05;0.80;;;;;;;;;;5054648;28;20253;-84
2022/05/29 14:57:49;;;;;;;1.67;1.20;;;;;;;;;;5055777;28;20257;-83
2022/05/29 15:00:24;;;;;;;3.47;1.00;;;;;;;;;;5055414;28;20711;-84
2022/05/29 15:02:51;;;;;;;2.60;1.00;;;;;;;;;;5056706;28;20705;-86
2022/05/29 15:05:19;;;;;;;1.35;1.25;;;;;;;;;;5057942;28;20229;-81
2022/05/29 15:10:46;;;;;;;2.47;1.10;;;;;;;;;;5042313;28;20285;-82
2022/05/29 15:13:16;;;;;;;1.80;0.80;;;;;;;;;;5078545;28;20240;-81
2022/05/29 15:15:47;;;;;;;2.65;0.85;;;;;;;;;;5078514;28;20239;-84
2022/05/29 15:18:15;;;;;;;1.40;1.00;;;;;;;;;;5078628;28;20248;-86
2022/05/29 15:26:14;;;;;;;2.47;1.10;;;;;;;;;;5078609;28;20236;-81
2022/05/29 15:28:44;;;;;;;2.22;1.20;;;;;;;;;;5079423;28;20208;-81
2022/05/29 15:31:13;;;;;;;1.05;0.82;;;;;;;;;;5082118;28;20237;-81
2022/05/29 15:33:44;;;;;;;2.20;1.40;;;;;;;;;;5081507;28;20247;-82
2022/05/29 15:36:14;;;;;;;4.28;1.50;;;;;;;;;;5079781;28;20766;-84
2022/05/29 15:38:45;;;;;;;1.10;1.00;;;;;;;;;;5079335;28;20225;-82
2022/05/29 15:41:19;;;;;;;1.85;0.90;;;;;;;;;;5078590;28;20634;-81
2022/05/29 15:43:55;;;;;;;4.25;1.00;;;;;;;;;;5079648;28;20229;-80
2022/05/29 15:46:26;;;;;;;2.95;2.05;;;;;;;;;;5074210;28;20256;-83
2022/05/29 15:49:03;;;;;;;1.55;1.20;;;;;;;;;;5074039;28;20202;-80
2022/05/29 15:51:33;;;;;;;4.00;0.85;;;;;;;;;;5069894;28;20697;-80
2022/05/29 15:54:12;;;;;;;2.13;0.98;;;;;;;;;;5054583;28;20230;-83
2022/05/29 15:56:48;;;;;;;3.20;1.08;;;;;;;;;;5056805;28;20612;-82
2022/05/29 15:59:38;;;;;;;1.35;0.85;;;;;;;;;;5057199;28;20232;-83